Terminal Aerodrome Forecast
Issued by NWS

Home | Current Version | Previous Version | Graphics & Text | Print | Product List | Glossary On
Versions: 1 2 3 4 5 6 7 8 9 10 11 12 13 14
318
FTUS45 KGGW 242041 AAA
TAFSDY
TAF AMD
KSDY 242041Z 2421/2518 34017G23KT 4SM -SHRA OVC008
     FM250100 32022G32KT 6SM -SHRA SCT005 OVC011
     FM250900 31017G25KT P6SM VCSH FEW030 SCT100
     FM251200 30013KT P6SM FEW200=

USA.gov is the U.S. government's official web portal to all federal, state and local government web resources and services.